sensor_id;sensor_type;location;lat;lon;timestamp;temperature;humidity
38183;DHT22;23991;52.430;10.586;2022-08-21T00:01:24;20.10;61.70
38183;DHT22;23991;52.430;10.586;2022-08-21T00:03:50;20.10;62.00
38183;DHT22;23991;52.430;10.586;2022-08-21T00:06:16;20.10;61.70
38183;DHT22;23991;52.430;10.586;2022-08-21T00:08:42;20.00;61.70
38183;DHT22;23991;52.430;10.586;2022-08-21T00:11:08;19.90;62.20
38183;DHT22;23991;52.430;10.586;2022-08-21T00:13:34;19.90;62.40
38183;DHT22;23991;52.430;10.586;2022-08-21T00:16:00;19.80;62.40
38183;DHT22;23991;52.430;10.586;2022-08-21T00:18:26;19.80;62.60
38183;DHT22;23991;52.430;10.586;2022-08-21T00:20:52;19.80;62.80
38183;DHT22;23991;52.430;10.586;2022-08-21T00:23:18;19.70;63.00
38183;DHT22;23991;52.430;10.586;2022-08-21T00:25:44;19.70;63.10
38183;DHT22;23991;52.430;10.586;2022-08-21T00:28:10;19.60;63.10
38183;DHT22;23991;52.430;10.586;2022-08-21T00:30:37;19.60;63.40
38183;DHT22;23991;52.430;10.586;2022-08-21T00:33:03;19.50;63.50
38183;DHT22;23991;52.430;10.586;2022-08-21T00:35:35;19.50;63.50
38183;DHT22;23991;52.430;10.586;2022-08-21T00:38:02;19.40;63.50
38183;DHT22;23991;52.430;10.586;2022-08-21T00:40:46;19.40;63.40
38183;DHT22;23991;52.430;10.586;2022-08-21T00:43:14;19.30;63.40
38183;DHT22;23991;52.430;10.586;2022-08-21T00:45:40;19.30;63.50
38183;DHT22;23991;52.430;10.586;2022-08-21T00:48:07;19.30;63.40
38183;DHT22;23991;52.430;10.586;2022-08-21T00:51:05;19.30;63.40
38183;DHT22;23991;52.430;10.586;2022-08-21T00:53:33;19.20;63.30
38183;DHT22;23991;52.430;10.586;2022-08-21T00:56:00;19.10;63.30
38183;DHT22;23991;52.430;10.586;2022-08-21T00:58:29;19.10;63.30
38183;DHT22;23991;52.430;10.586;2022-08-21T01:00:56;19.10;63.10
38183;DHT22;23991;52.430;10.586;2022-08-21T01:03:23;19.00;63.30
38183;DHT22;23991;52.430;10.586;2022-08-21T01:05:51;19.00;63.40
38183;DHT22;23991;52.430;10.586;2022-08-21T01:08:17;18.90;63.50
38183;DHT22;23991;52.430;10.586;2022-08-21T01:10:44;18.80;63.70
38183;DHT22;23991;52.430;10.586;2022-08-21T01:13:12;18.80;63.80
38183;DHT22;23991;52.430;10.586;2022-08-21T01:15:42;18.80;64.00
38183;DHT22;23991;52.430;10.586;2022-08-21T01:18:10;18.80;64.00
38183;DHT22;23991;52.430;10.586;2022-08-21T01:20:38;18.70;64.10
38183;DHT22;23991;52.430;10.586;2022-08-21T01:23:05;18.60;64.20
38183;DHT22;23991;52.430;10.586;2022-08-21T01:25:32;18.50;64.40
38183;DHT22;23991;52.430;10.586;2022-08-21T01:27:59;18.50;64.60
38183;DHT22;23991;52.430;10.586;2022-08-21T01:30:27;18.50;64.70
38183;DHT22;23991;52.430;10.586;2022-08-21T01:32:55;18.50;64.70
38183;DHT22;23991;52.430;10.586;2022-08-21T01:35:21;18.50;64.80
38183;DHT22;23991;52.430;10.586;2022-08-21T01:37:48;18.40;64.90
38183;DHT22;23991;52.430;10.586;2022-08-21T01:40:15;18.40;64.90
38183;DHT22;23991;52.430;10.586;2022-08-21T01:42:42;18.30;64.90
38183;DHT22;23991;52.430;10.586;2022-08-21T01:45:09;18.30;65.00
38183;DHT22;23991;52.430;10.586;2022-08-21T01:47:35;18.30;65.20
38183;DHT22;23991;52.430;10.586;2022-08-21T01:50:05;18.30;65.30
38183;DHT22;23991;52.430;10.586;2022-08-21T01:52:31;18.30;65.50
38183;DHT22;23991;52.430;10.586;2022-08-21T01:54:56;18.20;65.30
38183;DHT22;23991;52.430;10.586;2022-08-21T01:57:23;18.20;65.10
38183;DHT22;23991;52.430;10.586;2022-08-21T01:59:49;18.10;65.10
38183;DHT22;23991;52.430;10.586;2022-08-21T02:02:14;18.10;65.10
38183;DHT22;23991;52.430;10.586;2022-08-21T02:04:40;18.10;65.00
38183;DHT22;23991;52.430;10.586;2022-08-21T02:07:05;18.10;65.00
38183;DHT22;23991;52.430;10.586;2022-08-21T02:09:32;18.00;65.10
38183;DHT22;23991;52.430;10.586;2022-08-21T02:11:57;17.90;65.40
38183;DHT22;23991;52.430;10.586;2022-08-21T02:14:23;17.80;65.60
38183;DHT22;23991;52.430;10.586;2022-08-21T02:16:49;17.80;65.80
38183;DHT22;23991;52.430;10.586;2022-08-21T02:19:15;17.80;65.80
38183;DHT22;23991;52.430;10.586;2022-08-21T02:21:41;17.80;66.20
38183;DHT22;23991;52.430;10.586;2022-08-21T02:24:08;17.70;66.30
38183;DHT22;23991;52.430;10.586;2022-08-21T02:26:33;17.70;66.50
38183;DHT22;23991;52.430;10.586;2022-08-21T02:29:00;17.70;66.50
38183;DHT22;23991;52.430;10.586;2022-08-21T02:31:25;17.70;66.70
38183;DHT22;23991;52.430;10.586;2022-08-21T02:33:51;17.60;66.90
38183;DHT22;23991;52.430;10.586;2022-08-21T02:36:17;17.60;67.00
38183;DHT22;23991;52.430;10.586;2022-08-21T02:38:43;17.60;66.90
38183;DHT22;23991;52.430;10.586;2022-08-21T02:41:16;17.50;66.80
38183;DHT22;23991;52.430;10.586;2022-08-21T02:43:42;17.50;66.90
38183;DHT22;23991;52.430;10.586;2022-08-21T02:46:09;17.50;66.80
38183;DHT22;23991;52.430;10.586;2022-08-21T02:48:35;17.50;66.90
38183;DHT22;23991;52.430;10.586;2022-08-21T02:51:16;17.40;66.60
38183;DHT22;23991;52.430;10.586;2022-08-21T02:53:44;17.40;66.50
38183;DHT22;23991;52.430;10.586;2022-08-21T02:56:12;17.40;66.80
38183;DHT22;23991;52.430;10.586;2022-08-21T02:58:43;17.30;66.90
38183;DHT22;23991;52.430;10.586;2022-08-21T03:01:09;17.30;66.80
38183;DHT22;23991;52.430;10.586;2022-08-21T03:03:37;17.30;66.90
38183;DHT22;23991;52.430;10.586;2022-08-21T03:06:05;17.20;67.00
38183;DHT22;23991;52.430;10.586;2022-08-21T03:08:31;17.20;67.00
38183;DHT22;23991;52.430;10.586;2022-08-21T03:10:56;17.10;67.00
38183;DHT22;23991;52.430;10.586;2022-08-21T03:13:22;17.10;67.10
38183;DHT22;23991;52.430;10.586;2022-08-21T03:15:49;17.10;67.40
38183;DHT22;23991;52.430;10.586;2022-08-21T03:18:15;17.10;67.50
38183;DHT22;23991;52.430;10.586;2022-08-21T03:20:43;17.00;67.60
38183;DHT22;23991;52.430;10.586;2022-08-21T03:23:10;17.00;67.60
38183;DHT22;23991;52.430;10.586;2022-08-21T03:25:37;17.00;67.60
38183;DHT22;23991;52.430;10.586;2022-08-21T03:28:06;16.90;67.50
38183;DHT22;23991;52.430;10.586;2022-08-21T03:30:32;16.90;67.60
38183;DHT22;23991;52.430;10.586;2022-08-21T03:33:00;16.80;67.80
38183;DHT22;23991;52.430;10.586;2022-08-21T03:35:27;16.80;68.10
38183;DHT22;23991;52.430;10.586;2022-08-21T03:37:53;16.80;68.10
38183;DHT22;23991;52.430;10.586;2022-08-21T03:40:20;16.70;68.30
38183;DHT22;23991;52.430;10.586;2022-08-21T03:42:46;16.70;68.20
38183;DHT22;23991;52.430;10.586;2022-08-21T03:45:13;16.60;68.30
38183;DHT22;23991;52.430;10.586;2022-08-21T03:47:49;16.60;68.50
38183;DHT22;23991;52.430;10.586;2022-08-21T03:50:15;16.60;68.70
38183;DHT22;23991;52.430;10.586;2022-08-21T03:52:42;16.50;68.80
38183;DHT22;23991;52.430;10.586;2022-08-21T03:55:08;16.50;68.90
38183;DHT22;23991;52.430;10.586;2022-08-21T03:59:59;16.50;68.80
38183;DHT22;23991;52.430;10.586;2022-08-21T04:02:25;16.50;68.70
38183;DHT22;23991;52.430;10.586;2022-08-21T04:04:50;16.50;68.50
38183;DHT22;23991;52.430;10.586;2022-08-21T04:07:16;16.50;68.70
38183;DHT22;23991;52.430;10.586;2022-08-21T04:09:43;16.40;68.70
38183;DHT22;23991;52.430;10.586;2022-08-21T04:12:09;16.30;68.40
38183;DHT22;23991;52.430;10.586;2022-08-21T04:14:35;16.30;68.40
38183;DHT22;23991;52.430;10.586;2022-08-21T04:17:00;16.30;68.60
38183;DHT22;23991;52.430;10.586;2022-08-21T04:19:26;16.30;68.60
38183;DHT22;23991;52.430;10.586;2022-08-21T04:21:51;16.30;68.70
38183;DHT22;23991;52.430;10.586;2022-08-21T04:24:17;16.30;68.80
38183;DHT22;23991;52.430;10.586;2022-08-21T04:26:44;16.30;69.10
38183;DHT22;23991;52.430;10.586;2022-08-21T04:29:10;16.30;69.30
38183;DHT22;23991;52.430;10.586;2022-08-21T04:31:37;16.30;69.50
38183;DHT22;23991;52.430;10.586;2022-08-21T04:34:04;16.30;69.60
38183;DHT22;23991;52.430;10.586;2022-08-21T04:36:30;16.30;69.60
38183;DHT22;23991;52.430;10.586;2022-08-21T04:38:56;16.20;69.60
38183;DHT22;23991;52.430;10.586;2022-08-21T04:41:22;16.20;69.60
38183;DHT22;23991;52.430;10.586;2022-08-21T04:43:47;16.20;69.80
38183;DHT22;23991;52.430;10.586;2022-08-21T04:46:13;16.20;69.50
38183;DHT22;23991;52.430;10.586;2022-08-21T04:48:38;16.30;69.40
38183;DHT22;23991;52.430;10.586;2022-08-21T04:51:30;16.30;69.40
38183;DHT22;23991;52.430;10.586;2022-08-21T04:54:14;16.40;69.20
38183;DHT22;23991;52.430;10.586;2022-08-21T04:56:51;16.50;69.00
38183;DHT22;23991;52.430;10.586;2022-08-21T04:59:23;16.50;68.90
38183;DHT22;23991;52.430;10.586;2022-08-21T05:01:50;16.50;68.70
38183;DHT22;23991;52.430;10.586;2022-08-21T05:04:20;16.60;68.70
38183;DHT22;23991;52.430;10.586;2022-08-21T05:06:46;16.70;68.60
38183;DHT22;23991;52.430;10.586;2022-08-21T05:09:14;16.80;68.40
38183;DHT22;23991;52.430;10.586;2022-08-21T05:11:42;16.80;68.10
38183;DHT22;23991;52.430;10.586;2022-08-21T05:14:08;16.90;68.10
38183;DHT22;23991;52.430;10.586;2022-08-21T05:16:34;17.00;67.90
38183;DHT22;23991;52.430;10.586;2022-08-21T05:19:00;17.10;67.70
38183;DHT22;23991;52.430;10.586;2022-08-21T05:21:26;17.20;67.70
38183;DHT22;23991;52.430;10.586;2022-08-21T05:23:51;17.20;67.60
38183;DHT22;23991;52.430;10.586;2022-08-21T05:26:17;17.30;67.70
38183;DHT22;23991;52.430;10.586;2022-08-21T05:28:43;17.30;67.60
38183;DHT22;23991;52.430;10.586;2022-08-21T05:31:08;17.50;67.80
38183;DHT22;23991;52.430;10.586;2022-08-21T05:33:34;17.60;68.10
38183;DHT22;23991;52.430;10.586;2022-08-21T05:35:59;17.70;68.40
38183;DHT22;23991;52.430;10.586;2022-08-21T05:38:25;17.80;69.20
38183;DHT22;23991;52.430;10.586;2022-08-21T05:40:52;17.90;69.40
38183;DHT22;23991;52.430;10.586;2022-08-21T05:43:18;18.00;69.10
38183;DHT22;23991;52.430;10.586;2022-08-21T05:45:44;18.10;68.70
38183;DHT22;23991;52.430;10.586;2022-08-21T05:48:21;18.30;68.40
38183;DHT22;23991;52.430;10.586;2022-08-21T05:50:48;18.30;68.40
38183;DHT22;23991;52.430;10.586;2022-08-21T05:53:15;18.40;68.10
38183;DHT22;23991;52.430;10.586;2022-08-21T05:55:42;18.60;67.90
38183;DHT22;23991;52.430;10.586;2022-08-21T05:58:08;18.80;67.80
38183;DHT22;23991;52.430;10.586;2022-08-21T06:00:34;18.80;67.60
38183;DHT22;23991;52.430;10.586;2022-08-21T06:03:00;19.10;67.10
38183;DHT22;23991;52.430;10.586;2022-08-21T06:05:25;19.20;66.70
38183;DHT22;23991;52.430;10.586;2022-08-21T06:07:51;19.20;66.90
38183;DHT22;23991;52.430;10.586;2022-08-21T06:10:17;19.30;66.50
38183;DHT22;23991;52.430;10.586;2022-08-21T06:12:43;19.50;66.60
38183;DHT22;23991;52.430;10.586;2022-08-21T06:15:09;19.70;66.20
38183;DHT22;23991;52.430;10.586;2022-08-21T06:17:35;19.80;65.80
38183;DHT22;23991;52.430;10.586;2022-08-21T06:20:01;20.00;65.10
38183;DHT22;23991;52.430;10.586;2022-08-21T06:22:27;20.20;64.10
38183;DHT22;23991;52.430;10.586;2022-08-21T06:24:54;20.50;63.50
38183;DHT22;23991;52.430;10.586;2022-08-21T06:27:19;20.70;62.80
38183;DHT22;23991;52.430;10.586;2022-08-21T06:29:45;20.70;62.80
38183;DHT22;23991;52.430;10.586;2022-08-21T06:32:12;20.80;61.70
38183;DHT22;23991;52.430;10.586;2022-08-21T06:34:41;20.80;61.90
38183;DHT22;23991;52.430;10.586;2022-08-21T06:37:07;21.00;61.80
38183;DHT22;23991;52.430;10.586;2022-08-21T06:39:33;21.20;61.40
38183;DHT22;23991;52.430;10.586;2022-08-21T06:42:00;21.50;60.40
38183;DHT22;23991;52.430;10.586;2022-08-21T06:44:26;21.50;59.60
38183;DHT22;23991;52.430;10.586;2022-08-21T06:46:51;21.80;59.10
38183;DHT22;23991;52.430;10.586;2022-08-21T06:49:17;21.80;58.40
38183;DHT22;23991;52.430;10.586;2022-08-21T06:51:42;22.00;57.60
38183;DHT22;23991;52.430;10.586;2022-08-21T06:54:08;22.20;57.60
38183;DHT22;23991;52.430;10.586;2022-08-21T06:56:34;22.20;56.70
38183;DHT22;23991;52.430;10.586;2022-08-21T06:59:02;22.30;56.10
38183;DHT22;23991;52.430;10.586;2022-08-21T07:01:28;22.30;56.30
38183;DHT22;23991;52.430;10.586;2022-08-21T07:03:53;22.60;55.40
38183;DHT22;23991;52.430;10.586;2022-08-21T07:06:19;22.70;55.50
38183;DHT22;23991;52.430;10.586;2022-08-21T07:08:45;22.70;55.30
38183;DHT22;23991;52.430;10.586;2022-08-21T07:11:23;22.80;54.70
38183;DHT22;23991;52.430;10.586;2022-08-21T07:13:50;23.00;54.10
38183;DHT22;23991;52.430;10.586;2022-08-21T07:16:18;23.10;53.60
38183;DHT22;23991;52.430;10.586;2022-08-21T07:18:44;23.20;52.90
38183;DHT22;23991;52.430;10.586;2022-08-21T07:21:10;23.30;52.70
38183;DHT22;23991;52.430;10.586;2022-08-21T07:23:39;23.30;52.30
38183;DHT22;23991;52.430;10.586;2022-08-21T07:26:06;23.50;52.70
38183;DHT22;23991;52.430;10.586;2022-08-21T07:28:32;23.50;52.70
38183;DHT22;23991;52.430;10.586;2022-08-21T07:30:59;23.70;52.00
38183;DHT22;23991;52.430;10.586;2022-08-21T07:33:28;23.80;51.00
38183;DHT22;23991;52.430;10.586;2022-08-21T07:35:54;23.90;50.20
38183;DHT22;23991;52.430;10.586;2022-08-21T07:38:20;24.20;49.60
38183;DHT22;23991;52.430;10.586;2022-08-21T07:40:47;24.20;49.30
38183;DHT22;23991;52.430;10.586;2022-08-21T07:43:14;24.40;47.70
38183;DHT22;23991;52.430;10.586;2022-08-21T07:45:42;24.40;47.30
38183;DHT22;23991;52.430;10.586;2022-08-21T07:48:08;24.60;47.50
38183;DHT22;23991;52.430;10.586;2022-08-21T07:50:33;24.70;46.40
38183;DHT22;23991;52.430;10.586;2022-08-21T07:52:59;24.70;46.10
38183;DHT22;23991;52.430;10.586;2022-08-21T07:55:25;24.80;46.20
38183;DHT22;23991;52.430;10.586;2022-08-21T07:57:50;24.90;46.00
38183;DHT22;23991;52.430;10.586;2022-08-21T08:00:19;25.00;45.00
38183;DHT22;23991;52.430;10.586;2022-08-21T08:02:48;25.10;42.90
38183;DHT22;23991;52.430;10.586;2022-08-21T08:05:19;25.20;43.90
38183;DHT22;23991;52.430;10.586;2022-08-21T08:07:45;25.40;43.00
38183;DHT22;23991;52.430;10.586;2022-08-21T08:10:11;25.50;43.10
38183;DHT22;23991;52.430;10.586;2022-08-21T08:12:39;25.90;42.90
38183;DHT22;23991;52.430;10.586;2022-08-21T08:15:08;26.40;42.30
38183;DHT22;23991;52.430;10.586;2022-08-21T08:17:34;26.90;39.50
38183;DHT22;23991;52.430;10.586;2022-08-21T08:20:00;27.20;39.00
38183;DHT22;23991;52.430;10.586;2022-08-21T08:22:28;27.40;39.60
38183;DHT22;23991;52.430;10.586;2022-08-21T08:24:54;27.60;39.80
38183;DHT22;23991;52.430;10.586;2022-08-21T08:27:21;27.60;40.10
38183;DHT22;23991;52.430;10.586;2022-08-21T08:29:47;27.60;40.70
38183;DHT22;23991;52.430;10.586;2022-08-21T08:32:13;27.50;40.50
38183;DHT22;23991;52.430;10.586;2022-08-21T08:34:39;27.40;41.20
38183;DHT22;23991;52.430;10.586;2022-08-21T08:37:06;27.40;42.30
38183;DHT22;23991;52.430;10.586;2022-08-21T08:39:32;27.20;43.30
38183;DHT22;23991;52.430;10.586;2022-08-21T08:42:25;27.20;43.70
38183;DHT22;23991;52.430;10.586;2022-08-21T08:44:59;27.20;43.60
38183;DHT22;23991;52.430;10.586;2022-08-21T08:47:25;27.20;43.60
38183;DHT22;23991;52.430;10.586;2022-08-21T08:49:54;27.20;43.50
38183;DHT22;23991;52.430;10.586;2022-08-21T08:52:26;27.20;42.80
38183;DHT22;23991;52.430;10.586;2022-08-21T08:55:08;27.20;42.80
38183;DHT22;23991;52.430;10.586;2022-08-21T08:57:37;27.40;42.70
38183;DHT22;23991;52.430;10.586;2022-08-21T09:00:09;27.70;42.20
38183;DHT22;23991;52.430;10.586;2022-08-21T09:02:39;28.00;42.30
38183;DHT22;23991;52.430;10.586;2022-08-21T09:05:05;28.20;42.00
38183;DHT22;23991;52.430;10.586;2022-08-21T09:10:20;28.20;42.50
38183;DHT22;23991;52.430;10.586;2022-08-21T09:13:20;28.60;41.90
38183;DHT22;23991;52.430;10.586;2022-08-21T09:21:28;28.80;41.90
38183;DHT22;23991;52.430;10.586;2022-08-21T09:26:54;29.70;40.60
38183;DHT22;23991;52.430;10.586;2022-08-21T09:29:24;30.40;39.20
38183;DHT22;23991;52.430;10.586;2022-08-21T09:31:54;31.00;37.90
38183;DHT22;23991;52.430;10.586;2022-08-21T09:34:29;31.70;36.30
38183;DHT22;23991;52.430;10.586;2022-08-21T09:36:57;32.00;36.10
38183;DHT22;23991;52.430;10.586;2022-08-21T09:39:28;32.60;35.40
38183;DHT22;23991;52.430;10.586;2022-08-21T09:42:00;33.00;34.10
38183;DHT22;23991;52.430;10.586;2022-08-21T09:44:31;33.30;33.70
38183;DHT22;23991;52.430;10.586;2022-08-21T09:46:57;33.60;33.90
38183;DHT22;23991;52.430;10.586;2022-08-21T09:49:35;33.70;33.10
38183;DHT22;23991;52.430;10.586;2022-08-21T09:52:04;34.00;32.10
38183;DHT22;23991;52.430;10.586;2022-08-21T09:54:32;34.30;32.00
38183;DHT22;23991;52.430;10.586;2022-08-21T09:57:03;34.70;31.10
38183;DHT22;23991;52.430;10.586;2022-08-21T09:59:48;35.00;30.70
38183;DHT22;23991;52.430;10.586;2022-08-21T10:02:27;35.20;29.70
38183;DHT22;23991;52.430;10.586;2022-08-21T10:05:14;35.20;30.10
38183;DHT22;23991;52.430;10.586;2022-08-21T10:07:40;35.40;29.60
38183;DHT22;23991;52.430;10.586;2022-08-21T10:10:16;35.50;28.20
38183;DHT22;23991;52.430;10.586;2022-08-21T10:13:17;35.60;28.50
38183;DHT22;23991;52.430;10.586;2022-08-21T10:21:26;36.40;27.00
38183;DHT22;23991;52.430;10.586;2022-08-21T10:27:22;36.90;25.80
38183;DHT22;23991;52.430;10.586;2022-08-21T10:29:57;37.00;26.00
38183;DHT22;23991;52.430;10.586;2022-08-21T10:32:43;37.20;25.50
38183;DHT22;23991;52.430;10.586;2022-08-21T10:35:31;37.60;25.10
38183;DHT22;23991;52.430;10.586;2022-08-21T10:38:24;37.90;24.60
38183;DHT22;23991;52.430;10.586;2022-08-21T10:49:39;37.80;24.60
38183;DHT22;23991;52.430;10.586;2022-08-21T10:55:19;38.20;23.80
38183;DHT22;23991;52.430;10.586;2022-08-21T10:57:58;38.60;23.20
38183;DHT22;23991;52.430;10.586;2022-08-21T11:03:35;37.30;24.40
38183;DHT22;23991;52.430;10.586;2022-08-21T11:06:18;37.00;24.70
38183;DHT22;23991;52.430;10.586;2022-08-21T11:08:48;36.40;25.60
38183;DHT22;23991;52.430;10.586;2022-08-21T11:11:31;36.20;26.10
38183;DHT22;23991;52.430;10.586;2022-08-21T11:17:30;35.60;26.40
38183;DHT22;23991;52.430;10.586;2022-08-21T11:20:16;36.30;25.70
38183;DHT22;23991;52.430;10.586;2022-08-21T11:25:45;37.10;25.20
38183;DHT22;23991;52.430;10.586;2022-08-21T11:28:26;37.60;24.30
38183;DHT22;23991;52.430;10.586;2022-08-21T11:31:13;38.20;23.80
38183;DHT22;23991;52.430;10.586;2022-08-21T11:34:09;38.50;23.40
38183;DHT22;23991;52.430;10.586;2022-08-21T11:36:46;38.50;23.00
38183;DHT22;23991;52.430;10.586;2022-08-21T11:39:27;38.90;23.30
38183;DHT22;23991;52.430;10.586;2022-08-21T11:44:49;39.60;22.20
38183;DHT22;23991;52.430;10.586;2022-08-21T11:50:16;40.10;21.70
38183;DHT22;23991;52.430;10.586;2022-08-21T11:58:34;40.10;21.00
38183;DHT22;23991;52.430;10.586;2022-08-21T12:01:22;39.30;21.30
38183;DHT22;23991;52.430;10.586;2022-08-21T12:03:58;38.80;21.80
38183;DHT22;23991;52.430;10.586;2022-08-21T12:06:41;38.30;22.40
38183;DHT22;23991;52.430;10.586;2022-08-21T12:12:11;38.90;21.60
38183;DHT22;23991;52.430;10.586;2022-08-21T12:14:45;39.50;20.90
38183;DHT22;23991;52.430;10.586;2022-08-21T12:17:38;39.60;21.20
38183;DHT22;23991;52.430;10.586;2022-08-21T12:22:55;40.10;19.80
38183;DHT22;23991;52.430;10.586;2022-08-21T12:25:37;40.60;19.80
38183;DHT22;23991;52.430;10.586;2022-08-21T12:28:08;40.60;19.70
38183;DHT22;23991;52.430;10.586;2022-08-21T12:30:37;40.90;19.70
38183;DHT22;23991;52.430;10.586;2022-08-21T12:33:05;40.90;19.20
38183;DHT22;23991;52.430;10.586;2022-08-21T12:35:37;41.00;19.50
38183;DHT22;23991;52.430;10.586;2022-08-21T12:38:12;41.10;19.00
38183;DHT22;23991;52.430;10.586;2022-08-21T12:41:00;40.90;18.60
38183;DHT22;23991;52.430;10.586;2022-08-21T12:45:58;39.60;19.20
38183;DHT22;23991;52.430;10.586;2022-08-21T12:48:42;38.80;20.50
38183;DHT22;23991;52.430;10.586;2022-08-21T12:51:13;38.40;21.20
38183;DHT22;23991;52.430;10.586;2022-08-21T12:53:54;38.20;21.20
38183;DHT22;23991;52.430;10.586;2022-08-21T12:56:25;37.40;21.90
38183;DHT22;23991;52.430;10.586;2022-08-21T12:59:01;37.50;22.40
38183;DHT22;23991;52.430;10.586;2022-08-21T13:01:30;37.40;22.30
38183;DHT22;23991;52.430;10.586;2022-08-21T13:04:00;37.50;21.90
38183;DHT22;23991;52.430;10.586;2022-08-21T13:06:29;37.60;22.10
38183;DHT22;23991;52.430;10.586;2022-08-21T13:09:04;37.60;22.00
38183;DHT22;23991;52.430;10.586;2022-08-21T13:11:31;38.20;21.60
38183;DHT22;23991;52.430;10.586;2022-08-21T13:13:57;38.60;21.00
38183;DHT22;23991;52.430;10.586;2022-08-21T13:16:27;38.60;20.50
38183;DHT22;23991;52.430;10.586;2022-08-21T13:19:00;39.10;20.30
38183;DHT22;23991;52.430;10.586;2022-08-21T13:21:32;39.60;19.90
38183;DHT22;23991;52.430;10.586;2022-08-21T13:24:17;39.60;20.20
38183;DHT22;23991;52.430;10.586;2022-08-21T13:26:43;39.30;20.60
38183;DHT22;23991;52.430;10.586;2022-08-21T13:29:12;39.60;19.30
38183;DHT22;23991;52.430;10.586;2022-08-21T13:31:47;39.60;19.70
38183;DHT22;23991;52.430;10.586;2022-08-21T13:34:14;39.40;19.70
38183;DHT22;23991;52.430;10.586;2022-08-21T13:36:41;39.10;20.10
38183;DHT22;23991;52.430;10.586;2022-08-21T13:39:11;38.80;20.60
38183;DHT22;23991;52.430;10.586;2022-08-21T13:41:38;38.50;20.60
38183;DHT22;23991;52.430;10.586;2022-08-21T13:44:19;38.20;21.30
38183;DHT22;23991;52.430;10.586;2022-08-21T13:46:48;38.30;22.10
38183;DHT22;23991;52.430;10.586;2022-08-21T13:49:17;37.80;21.30
38183;DHT22;23991;52.430;10.586;2022-08-21T13:51:44;37.40;21.60
38183;DHT22;23991;52.430;10.586;2022-08-21T13:54:15;37.10;22.40
38183;DHT22;23991;52.430;10.586;2022-08-21T13:56:45;36.90;22.60
38183;DHT22;23991;52.430;10.586;2022-08-21T13:59:11;36.80;22.50
38183;DHT22;23991;52.430;10.586;2022-08-21T14:01:48;37.00;22.40
38183;DHT22;23991;52.430;10.586;2022-08-21T14:04:24;37.20;22.30
38183;DHT22;23991;52.430;10.586;2022-08-21T14:06:51;36.80;22.20
38183;DHT22;23991;52.430;10.586;2022-08-21T14:09:41;37.10;22.00
38183;DHT22;23991;52.430;10.586;2022-08-21T14:12:17;36.60;22.40
38183;DHT22;23991;52.430;10.586;2022-08-21T14:14:44;36.20;22.70
38183;DHT22;23991;52.430;10.586;2022-08-21T14:17:16;36.00;23.10
38183;DHT22;23991;52.430;10.586;2022-08-21T14:19:51;36.20;22.90
38183;DHT22;23991;52.430;10.586;2022-08-21T14:22:30;36.20;22.70
38183;DHT22;23991;52.430;10.586;2022-08-21T14:27:36;37.20;21.80
38183;DHT22;23991;52.430;10.586;2022-08-21T14:30:16;37.50;21.40
38183;DHT22;23991;52.430;10.586;2022-08-21T14:32:42;37.80;21.20
38183;DHT22;23991;52.430;10.586;2022-08-21T14:35:08;37.90;21.40
38183;DHT22;23991;52.430;10.586;2022-08-21T14:37:34;38.00;21.80
38183;DHT22;23991;52.430;10.586;2022-08-21T14:40:00;38.10;21.20
38183;DHT22;23991;52.430;10.586;2022-08-21T14:42:27;38.30;21.00
38183;DHT22;23991;52.430;10.586;2022-08-21T14:44:55;38.20;21.50
38183;DHT22;23991;52.430;10.586;2022-08-21T14:47:22;38.50;21.40
38183;DHT22;23991;52.430;10.586;2022-08-21T14:49:47;38.30;21.20
38183;DHT22;23991;52.430;10.586;2022-08-21T14:52:13;38.30;20.20
38183;DHT22;23991;52.430;10.586;2022-08-21T14:54:39;38.70;20.20
38183;DHT22;23991;52.430;10.586;2022-08-21T14:57:07;38.60;20.00
38183;DHT22;23991;52.430;10.586;2022-08-21T14:59:35;38.50;20.20
38183;DHT22;23991;52.430;10.586;2022-08-21T15:02:01;38.40;20.40
38183;DHT22;23991;52.430;10.586;2022-08-21T15:04:29;38.40;20.30
38183;DHT22;23991;52.430;10.586;2022-08-21T15:06:56;38.50;20.30
38183;DHT22;23991;52.430;10.586;2022-08-21T15:09:22;38.20;21.00
38183;DHT22;23991;52.430;10.586;2022-08-21T15:11:49;38.20;21.00
38183;DHT22;23991;52.430;10.586;2022-08-21T15:14:21;38.10;20.80
38183;DHT22;23991;52.430;10.586;2022-08-21T15:16:49;38.10;20.70
38183;DHT22;23991;52.430;10.586;2022-08-21T15:19:15;37.70;21.50
38183;DHT22;23991;52.430;10.586;2022-08-21T15:21:41;37.60;20.90
38183;DHT22;23991;52.430;10.586;2022-08-21T15:24:07;37.40;21.30
38183;DHT22;23991;52.430;10.586;2022-08-21T15:26:34;37.60;21.20
38183;DHT22;23991;52.430;10.586;2022-08-21T15:29:00;37.60;21.00
38183;DHT22;23991;52.430;10.586;2022-08-21T15:31:27;37.50;21.10
38183;DHT22;23991;52.430;10.586;2022-08-21T15:33:53;37.70;21.60
38183;DHT22;23991;52.430;10.586;2022-08-21T15:36:19;37.80;21.50
38183;DHT22;23991;52.430;10.586;2022-08-21T15:38:45;37.50;20.90
38183;DHT22;23991;52.430;10.586;2022-08-21T15:41:11;37.40;21.10
38183;DHT22;23991;52.430;10.586;2022-08-21T15:43:43;37.20;21.40
38183;DHT22;23991;52.430;10.586;2022-08-21T15:46:13;37.10;21.50
38183;DHT22;23991;52.430;10.586;2022-08-21T15:48:40;36.90;21.70
38183;DHT22;23991;52.430;10.586;2022-08-21T15:51:06;36.80;21.90
38183;DHT22;23991;52.430;10.586;2022-08-21T15:53:32;36.70;22.00
38183;DHT22;23991;52.430;10.586;2022-08-21T15:56:02;36.40;22.20
38183;DHT22;23991;52.430;10.586;2022-08-21T15:58:27;36.10;22.40
38183;DHT22;23991;52.430;10.586;2022-08-21T16:00:53;35.70;22.60
38183;DHT22;23991;52.430;10.586;2022-08-21T16:03:19;35.70;22.90
38183;DHT22;23991;52.430;10.586;2022-08-21T16:05:48;35.50;23.00
38183;DHT22;23991;52.430;10.586;2022-08-21T16:08:15;35.70;23.30
38183;DHT22;23991;52.430;10.586;2022-08-21T16:10:41;35.50;23.40
38183;DHT22;23991;52.430;10.586;2022-08-21T16:13:15;35.50;23.50
38183;DHT22;23991;52.430;10.586;2022-08-21T16:15:42;35.60;23.40
38183;DHT22;23991;52.430;10.586;2022-08-21T16:18:08;35.50;23.50
38183;DHT22;23991;52.430;10.586;2022-08-21T16:20:35;35.40;23.80
38183;DHT22;23991;52.430;10.586;2022-08-21T16:23:01;35.20;23.90
38183;DHT22;23991;52.430;10.586;2022-08-21T16:25:27;35.10;23.80
38183;DHT22;23991;52.430;10.586;2022-08-21T16:27:56;35.20;23.70
38183;DHT22;23991;52.430;10.586;2022-08-21T16:30:23;35.10;23.70
38183;DHT22;23991;52.430;10.586;2022-08-21T16:32:50;35.10;23.90
38183;DHT22;23991;52.430;10.586;2022-08-21T16:35:19;34.90;24.20